Marysville, Ohio
Current Conditions -  °F | °C
As of 11:13 AM on Monday 24 Nov 2014 (Local Time) from KMRT Reporting Station
Overcast Overcast  
Wind Chill: 13°   Ceiling: 4000
Heat Index: 13°   Visibility: 4mi
Dew Point: 10°   Wind: 25mph
Humidity: 83%   Direction: 240°WSW
Pressure: 29.35"   Gusts: 32mph
Location:  40.24°N, 83.37°W
Report Text: KMRT 241613Z AUTO 24022G28KT 4SM SCT025 BKN040 OVC047 13/10 A2935 RMK AO2 P0003 T01270099
Loading
Personal Weather Stations






























Interactive Weather Map New forecast layout! Learn more

10-Day Weather Forecast

Advertisements
Track Severe Weather on mobile